createdAt,value
2022-12-03T00:02:12.958Z,64.40
2022-12-03T00:04:39.661Z,64.30
2022-12-03T00:07:06.288Z,64.20
2022-12-03T00:09:32.934Z,64.10
2022-12-03T00:11:59.611Z,64.20
2022-12-03T00:14:26.229Z,64.00
2022-12-03T00:16:52.829Z,64.10
2022-12-03T00:19:19.418Z,63.80
2022-12-03T00:21:46.038Z,63.70
2022-12-03T00:24:12.663Z,63.80
2022-12-03T00:26:39.260Z,63.60
2022-12-03T00:29:05.886Z,63.50
2022-12-03T00:31:32.577Z,63.60
2022-12-03T00:33:59.265Z,63.40
2022-12-03T00:36:25.850Z,63.50
2022-12-03T00:38:52.456Z,63.50
2022-12-03T00:41:19.141Z,63.60
2022-12-03T00:43:45.783Z,63.60
2022-12-03T00:46:14.801Z,63.60
2022-12-03T00:48:44.866Z,63.50
2022-12-03T00:51:11.516Z,63.50
2022-12-03T00:53:38.602Z,63.50
2022-12-03T00:56:05.515Z,63.40
2022-12-03T00:58:32.148Z,63.40
2022-12-03T01:00:58.892Z,63.40
2022-12-03T01:03:25.572Z,63.50
2022-12-03T01:05:52.193Z,63.50
2022-12-03T01:08:18.810Z,63.70
2022-12-03T01:10:45.434Z,63.70
2022-12-03T01:13:12.045Z,63.60
2022-12-03T01:15:38.751Z,63.60
2022-12-03T01:18:05.447Z,63.70
2022-12-03T01:20:32.260Z,63.70
2022-12-03T01:22:58.895Z,63.70
2022-12-03T01:25:25.616Z,64.00
2022-12-03T01:27:52.210Z,63.70
2022-12-03T01:30:19.022Z,63.80
2022-12-03T01:32:45.686Z,63.60
2022-12-03T01:35:12.369Z,63.70
2022-12-03T01:37:38.986Z,63.60
2022-12-03T01:40:07.761Z,63.90
2022-12-03T01:42:39.278Z,63.60
2022-12-03T01:45:06.915Z,63.60
2022-12-03T01:47:35.523Z,63.50
2022-12-03T01:50:31.661Z,63.50
2022-12-03T01:53:01.782Z,63.60
2022-12-03T01:55:29.165Z,63.60
2022-12-03T01:58:01.068Z,64.90
2022-12-03T02:00:28.927Z,63.60
2022-12-03T02:02:58.265Z,63.60
2022-12-03T02:05:28.003Z,63.50
2022-12-03T02:07:55.265Z,63.50
2022-12-03T02:10:30.429Z,63.50
2022-12-03T02:13:05.028Z,63.50
2022-12-03T02:15:31.784Z,63.50
2022-12-03T02:17:58.567Z,63.70
2022-12-03T02:20:25.277Z,63.80
2022-12-03T02:23:06.939Z,63.60
2022-12-03T02:25:35.626Z,63.50
2022-12-03T02:28:03.769Z,63.60
2022-12-03T02:30:31.997Z,63.50
2022-12-03T02:32:59.581Z,63.50
2022-12-03T02:35:30.200Z,63.60
2022-12-03T02:38:03.211Z,63.50
2022-12-03T02:40:32.467Z,63.40
2022-12-03T02:43:02.179Z,63.50
2022-12-03T02:45:39.299Z,63.40
2022-12-03T02:48:12.786Z,63.50
2022-12-03T02:50:42.589Z,63.40
2022-12-03T02:53:15.031Z,63.60
2022-12-03T02:55:42.536Z,63.60
2022-12-03T02:58:10.734Z,63.60
2022-12-03T03:00:38.565Z,63.60
2022-12-03T03:03:07.757Z,63.70
2022-12-03T03:05:36.797Z,63.60
2022-12-03T03:08:04.172Z,63.70
2022-12-03T03:10:33.114Z,63.50
2022-12-03T03:13:00.271Z,63.60
2022-12-03T03:15:26.934Z,63.60
2022-12-03T03:17:53.606Z,63.70
2022-12-03T03:20:20.615Z,63.70
2022-12-03T03:22:47.218Z,63.70
2022-12-03T03:25:17.352Z,63.70
2022-12-03T03:27:45.147Z,63.60
2022-12-03T03:30:13.024Z,63.70
2022-12-03T03:32:40.655Z,63.60
2022-12-03T03:35:08.715Z,63.70
2022-12-03T03:37:35.484Z,63.60
2022-12-03T03:40:02.280Z,63.70
2022-12-03T03:42:29.013Z,63.70
2022-12-03T03:44:55.968Z,63.80
2022-12-03T03:47:23.735Z,63.70
2022-12-03T03:49:50.801Z,63.80
2022-12-03T03:52:19.393Z,63.60
2022-12-03T03:54:46.715Z,63.70
2022-12-03T03:57:13.358Z,63.70
2022-12-03T03:59:40.151Z,63.70
2022-12-03T04:02:06.700Z,63.80
2022-12-03T04:04:36.385Z,63.90
2022-12-03T04:07:03.105Z,63.80
2022-12-03T04:09:29.791Z,64.80
2022-12-03T04:12:15.238Z,64.00
2022-12-03T04:14:41.818Z,64.00
2022-12-03T04:17:08.383Z,64.00
2022-12-03T04:19:34.992Z,64.00
2022-12-03T04:22:20.188Z,64.10
2022-12-03T04:24:46.774Z,63.90
2022-12-03T04:27:32.000Z,64.10
2022-12-03T04:29:58.593Z,63.90
2022-12-03T04:32:43.678Z,63.90
2022-12-03T04:35:29.141Z,64.00
2022-12-03T04:37:55.952Z,64.20
2022-12-03T04:40:40.925Z,64.00
2022-12-03T04:43:07.466Z,64.00
2022-12-03T04:45:34.032Z,64.00
2022-12-03T04:48:00.736Z,64.20
2022-12-03T04:50:27.339Z,64.00
2022-12-03T04:52:53.920Z,64.00
2022-12-03T04:55:20.519Z,64.20
2022-12-03T04:57:47.055Z,64.20
2022-12-03T05:00:14.282Z,64.20
2022-12-03T05:02:40.884Z,64.20
2022-12-03T05:05:07.886Z,64.30
2022-12-03T05:07:34.592Z,64.20
2022-12-03T05:10:01.234Z,64.30
2022-12-03T05:12:28.020Z,64.30
2022-12-03T05:14:54.816Z,64.30
2022-12-03T05:17:21.670Z,64.40
2022-12-03T05:20:06.719Z,64.50
2022-12-03T05:22:33.304Z,64.60
2022-12-03T05:24:59.895Z,64.50
2022-12-03T05:27:26.562Z,64.60
2022-12-03T05:29:53.204Z,64.90
2022-12-03T05:32:19.978Z,64.90
2022-12-03T05:34:46.544Z,64.90
2022-12-03T05:37:13.182Z,64.80
2022-12-03T05:39:39.801Z,65.00
2022-12-03T05:42:25.155Z,64.80
2022-12-03T05:44:52.022Z,64.80
2022-12-03T05:47:18.811Z,64.80
2022-12-03T05:49:45.462Z,64.70
2022-12-03T05:52:12.261Z,65.00
2022-12-03T05:54:38.827Z,64.70
2022-12-03T05:57:05.427Z,64.80
2022-12-03T05:59:31.991Z,64.80
2022-12-03T06:01:58.579Z,65.00
2022-12-03T06:04:25.147Z,65.00
2022-12-03T06:06:51.765Z,65.70
2022-12-03T06:09:18.339Z,66.70
2022-12-03T06:11:44.891Z,67.90
2022-12-03T06:14:11.469Z,64.60
2022-12-03T06:16:38.172Z,64.00
2022-12-03T06:19:04.870Z,63.70
2022-12-03T06:21:31.423Z,63.70
2022-12-03T06:23:58.094Z,63.60
2022-12-03T06:26:24.663Z,63.80
2022-12-03T06:28:51.263Z,63.90
2022-12-03T06:31:18.119Z,63.80
2022-12-03T06:33:44.812Z,64.50
2022-12-03T06:36:11.462Z,63.40
2022-12-03T06:38:38.103Z,63.40
2022-12-03T06:41:04.811Z,63.30
2022-12-03T06:43:31.369Z,63.20
2022-12-03T06:45:57.998Z,63.20
2022-12-03T06:48:24.559Z,63.30
2022-12-03T06:50:51.165Z,63.60
2022-12-03T06:53:17.724Z,63.70
2022-12-03T06:55:44.306Z,63.60
2022-12-03T06:58:10.922Z,64.00
2022-12-03T07:00:37.560Z,64.40
2022-12-03T07:03:04.561Z,65.60
2022-12-03T07:05:31.166Z,66.00
2022-12-03T07:07:57.791Z,67.00
2022-12-03T07:10:24.394Z,67.20
2022-12-03T07:12:50.964Z,66.40
2022-12-03T07:15:17.870Z,67.00
2022-12-03T07:17:44.516Z,67.10
2022-12-03T07:20:11.363Z,67.50
2022-12-03T07:22:37.973Z,67.60
2022-12-03T07:25:05.572Z,68.10
2022-12-03T07:27:32.146Z,68.00
2022-12-03T07:29:58.819Z,68.90
2022-12-03T07:32:25.378Z,65.80
2022-12-03T07:34:52.371Z,66.40
2022-12-03T07:37:23.032Z,65.40
2022-12-03T07:39:52.234Z,65.70
2022-12-03T07:42:18.819Z,65.40
2022-12-03T07:44:45.427Z,65.80
2022-12-03T07:47:12.053Z,65.70
2022-12-03T07:49:38.638Z,66.50
2022-12-03T07:52:07.136Z,69.20
2022-12-03T07:54:33.721Z,66.50
2022-12-03T07:57:01.880Z,62.50
2022-12-03T07:59:29.381Z,62.40
2022-12-03T08:01:56.085Z,61.90
2022-12-03T08:04:22.737Z,61.70
2022-12-03T08:06:49.418Z,61.60
2022-12-03T08:09:16.585Z,61.60
2022-12-03T08:11:47.555Z,61.50
2022-12-03T08:14:16.632Z,61.50
2022-12-03T08:16:45.191Z,61.60
2022-12-03T08:19:14.734Z,61.50
2022-12-03T08:21:41.667Z,61.50
2022-12-03T08:24:12.799Z,61.60
2022-12-03T08:26:39.428Z,61.50
2022-12-03T08:29:10.340Z,61.60
2022-12-03T08:31:37.282Z,61.50
2022-12-03T08:34:17.407Z,61.50
2022-12-03T08:36:44.038Z,61.60
2022-12-03T08:39:22.964Z,61.50
2022-12-03T08:42:21.080Z,61.50
2022-12-03T08:44:47.719Z,61.50
2022-12-03T08:47:21.963Z,61.50
2022-12-03T08:49:58.770Z,61.50
2022-12-03T08:52:33.423Z,61.50
2022-12-03T08:55:02.130Z,61.50
2022-12-03T08:57:31.717Z,61.50
2022-12-03T09:00:03.952Z,61.50
2022-12-03T09:02:34.032Z,61.50
2022-12-03T09:05:13.947Z,61.50
2022-12-03T09:07:40.563Z,61.50
2022-12-03T09:10:08.038Z,61.50
2022-12-03T09:12:34.591Z,61.50
2022-12-03T09:15:01.209Z,61.50
2022-12-03T09:17:27.987Z,61.50
2022-12-03T09:19:54.851Z,61.60
2022-12-03T09:22:22.652Z,61.60
2022-12-03T09:24:49.279Z,61.60
2022-12-03T09:27:15.838Z,61.60
2022-12-03T09:29:42.384Z,61.60
2022-12-03T09:32:11.473Z,61.60
2022-12-03T09:34:42.608Z,61.60
2022-12-03T09:37:09.616Z,61.50
2022-12-03T09:39:36.166Z,61.60
2022-12-03T09:42:03.257Z,61.60
2022-12-03T09:44:32.219Z,61.60
2022-12-03T09:47:00.467Z,61.60
2022-12-03T09:49:28.233Z,61.60
2022-12-03T09:52:00.485Z,61.50
2022-12-03T09:54:28.928Z,61.60
2022-12-03T09:56:57.432Z,61.60
2022-12-03T09:59:27.749Z,61.50
2022-12-03T10:01:54.626Z,61.60
2022-12-03T10:04:21.673Z,61.50
2022-12-03T10:06:48.443Z,61.50
2022-12-03T10:09:22.304Z,61.50
2022-12-03T10:11:49.085Z,61.60
2022-12-03T10:14:18.795Z,61.50
2022-12-03T10:16:45.880Z,61.60
2022-12-03T10:19:31.608Z,61.60
2022-12-03T10:21:58.859Z,61.50
2022-12-03T10:24:30.922Z,61.50
2022-12-03T10:26:58.569Z,61.50
2022-12-03T10:29:33.227Z,61.50
2022-12-03T10:32:05.920Z,61.50
2022-12-03T10:34:38.086Z,61.50
2022-12-03T10:37:15.014Z,61.50
2022-12-03T10:40:11.366Z,61.50
2022-12-03T10:42:41.177Z,61.50
2022-12-03T10:45:28.374Z,61.50
2022-12-03T10:48:17.547Z,61.50
2022-12-03T10:50:48.660Z,61.50
2022-12-03T10:53:15.864Z,61.50
2022-12-03T10:55:44.493Z,61.50
2022-12-03T10:58:23.059Z,61.60
2022-12-03T11:00:51.648Z,61.50
2022-12-03T11:03:21.796Z,61.50
2022-12-03T11:05:49.603Z,61.50
2022-12-03T11:08:35.202Z,61.60
2022-12-03T11:11:06.323Z,61.50
2022-12-03T11:13:32.898Z,61.50
2022-12-03T11:16:04.943Z,61.60
2022-12-03T11:18:37.403Z,61.50
2022-12-03T11:21:04.015Z,61.50
2022-12-03T11:23:48.619Z,61.50
2022-12-03T11:26:38.130Z,61.50
2022-12-03T11:29:13.027Z,61.50
2022-12-03T11:31:46.973Z,61.60
2022-12-03T11:34:16.528Z,61.50
2022-12-03T11:37:11.116Z,61.50
2022-12-03T11:39:59.339Z,61.50
2022-12-03T11:42:29.312Z,61.40
2022-12-03T11:45:05.226Z,61.30
2022-12-03T11:47:38.410Z,61.50
2022-12-03T11:50:36.115Z,61.40
2022-12-03T11:53:20.175Z,61.30
2022-12-03T11:55:53.165Z,61.50
2022-12-03T11:58:30.079Z,61.40
2022-12-03T12:00:59.938Z,61.50
2022-12-03T12:03:33.384Z,61.50
2022-12-03T12:06:05.008Z,61.50
2022-12-03T12:08:32.848Z,61.50
2022-12-03T12:10:59.767Z,61.50
2022-12-03T12:13:32.350Z,61.50
2022-12-03T12:16:00.378Z,61.40
2022-12-03T12:18:53.731Z,61.50
2022-12-03T12:21:49.908Z,61.50
2022-12-03T12:24:40.027Z,61.40
2022-12-03T12:27:12.440Z,61.50
2022-12-03T12:29:41.683Z,61.50
2022-12-03T12:32:15.013Z,61.50
2022-12-03T12:34:44.386Z,61.50
2022-12-03T12:37:13.387Z,61.50
2022-12-03T12:39:40.056Z,61.50
2022-12-03T12:42:25.570Z,61.50
2022-12-03T12:44:52.413Z,61.50
2022-12-03T12:47:19.112Z,61.50
2022-12-03T12:49:51.465Z,61.50
2022-12-03T12:52:18.411Z,61.50
2022-12-03T12:54:44.965Z,61.50
2022-12-03T12:57:21.275Z,61.50
2022-12-03T12:59:48.062Z,61.50
2022-12-03T13:02:27.905Z,61.50
2022-12-03T13:04:54.570Z,61.50
2022-12-03T13:07:22.175Z,61.60
2022-12-03T13:09:54.726Z,61.50
2022-12-03T13:12:23.987Z,61.50
2022-12-03T13:15:00.767Z,61.50
2022-12-03T13:17:27.312Z,61.50
2022-12-03T13:20:03.702Z,61.50
2022-12-03T13:22:33.914Z,61.80
2022-12-03T13:25:38.256Z,61.50
2022-12-03T13:28:10.042Z,61.50
2022-12-03T13:30:36.661Z,61.50
2022-12-03T13:33:15.893Z,61.60
2022-12-03T13:35:43.171Z,61.60
2022-12-03T13:38:16.530Z,61.60
2022-12-03T13:40:43.250Z,61.50
2022-12-03T13:43:15.739Z,61.60
2022-12-03T13:45:47.249Z,61.70
2022-12-03T13:48:19.003Z,61.60
2022-12-03T13:50:46.154Z,61.60
2022-12-03T13:53:23.473Z,61.60
2022-12-03T13:56:27.749Z,61.60
2022-12-03T13:58:55.645Z,61.60
2022-12-03T14:01:22.312Z,61.60
2022-12-03T14:03:49.572Z,61.70
2022-12-03T14:06:16.177Z,61.70
2022-12-03T14:08:42.773Z,61.60
2022-12-03T14:11:09.589Z,61.60
2022-12-03T14:13:36.162Z,61.60
2022-12-03T14:16:02.873Z,61.60
2022-12-03T14:18:29.479Z,61.70
2022-12-03T14:20:56.023Z,61.70
2022-12-03T14:23:22.729Z,61.70
2022-12-03T14:25:49.403Z,61.80
2022-12-03T14:28:15.958Z,61.70
2022-12-03T14:30:42.556Z,61.60
2022-12-03T14:33:09.199Z,61.60
2022-12-03T14:35:35.833Z,61.70
2022-12-03T14:38:02.432Z,61.60
2022-12-03T14:40:28.975Z,61.60
2022-12-03T14:42:55.555Z,61.80
2022-12-03T14:45:23.309Z,61.60
2022-12-03T14:47:49.935Z,61.70
2022-12-03T14:50:16.594Z,61.60
2022-12-03T14:52:43.372Z,61.60
2022-12-03T14:55:09.947Z,61.60
2022-12-03T14:57:36.517Z,61.70
2022-12-03T15:00:05.555Z,61.60
2022-12-03T15:02:32.391Z,61.50
2022-12-03T15:04:59.044Z,61.60
2022-12-03T15:07:25.708Z,61.60
2022-12-03T15:09:52.655Z,61.70
2022-12-03T15:12:19.440Z,61.60
2022-12-03T15:14:46.094Z,61.60
2022-12-03T15:17:12.723Z,61.60
2022-12-03T15:19:39.400Z,61.60
2022-12-03T15:22:05.970Z,61.70
2022-12-03T15:24:32.623Z,61.70
2022-12-03T15:26:59.623Z,61.60
2022-12-03T15:29:26.255Z,61.70
2022-12-03T15:31:52.931Z,61.60
2022-12-03T15:34:22.880Z,61.60
2022-12-03T15:36:49.609Z,61.70
2022-12-03T15:39:16.209Z,61.70
2022-12-03T15:41:42.822Z,61.60
2022-12-03T15:44:09.566Z,61.70
2022-12-03T15:46:36.215Z,61.70
2022-12-03T15:49:02.914Z,61.70
2022-12-03T15:51:29.485Z,61.70
2022-12-03T15:53:56.090Z,61.70
2022-12-03T15:56:22.710Z,61.60
2022-12-03T15:58:49.380Z,61.60
2022-12-03T16:01:18.000Z,61.60
2022-12-03T16:03:44.959Z,61.50
2022-12-03T16:06:12.469Z,62.40
2022-12-03T16:08:39.070Z,61.60
2022-12-03T16:11:05.820Z,61.60
2022-12-03T16:13:32.434Z,61.60
2022-12-03T16:15:59.188Z,61.60
2022-12-03T16:18:25.807Z,61.70
2022-12-03T16:20:52.477Z,61.60
2022-12-03T16:23:19.031Z,61.70
2022-12-03T16:25:45.625Z,61.60
2022-12-03T16:28:12.171Z,61.70
2022-12-03T16:30:38.914Z,61.70
2022-12-03T16:33:05.575Z,61.70
2022-12-03T16:35:32.202Z,61.60
2022-12-03T16:37:58.767Z,61.60
2022-12-03T16:40:25.534Z,61.60
2022-12-03T16:42:52.164Z,61.60
2022-12-03T16:45:21.462Z,61.50
2022-12-03T16:47:48.172Z,61.70
2022-12-03T16:50:21.803Z,61.60
2022-12-03T16:52:48.593Z,61.60
2022-12-03T16:55:15.306Z,61.70
2022-12-03T16:57:41.916Z,61.60
2022-12-03T17:00:08.687Z,61.60
2022-12-03T17:02:35.321Z,61.60
2022-12-03T17:05:01.962Z,61.70
2022-12-03T17:07:28.629Z,61.70
2022-12-03T17:09:55.351Z,61.60
2022-12-03T17:12:22.086Z,61.60
2022-12-03T17:14:48.708Z,61.60
2022-12-03T17:17:15.307Z,61.70
2022-12-03T17:19:41.920Z,61.60
2022-12-03T17:22:08.515Z,61.60
2022-12-03T17:24:35.081Z,61.50
2022-12-03T17:27:01.677Z,61.50
2022-12-03T17:29:28.281Z,61.50
2022-12-03T17:31:54.962Z,61.50
2022-12-03T17:34:21.682Z,61.50
2022-12-03T17:36:48.313Z,61.40
2022-12-03T17:39:14.945Z,61.50
2022-12-03T17:41:41.544Z,61.50
2022-12-03T17:44:11.324Z,61.50
2022-12-03T17:46:39.922Z,61.50
2022-12-03T17:49:06.536Z,61.50
2022-12-03T17:51:33.212Z,61.50
2022-12-03T17:53:59.788Z,61.50
2022-12-03T17:56:26.343Z,61.50
2022-12-03T17:58:52.908Z,61.50
2022-12-03T18:01:19.553Z,61.50
2022-12-03T18:03:46.236Z,61.50
2022-12-03T18:06:12.850Z,62.30
2022-12-03T18:08:39.519Z,61.50
2022-12-03T18:11:06.186Z,62.70
2022-12-03T18:13:32.830Z,61.50
2022-12-03T18:15:59.447Z,61.50
2022-12-03T18:18:26.202Z,61.50
2022-12-03T18:20:53.865Z,61.50
2022-12-03T18:23:20.634Z,61.50
2022-12-03T18:25:47.216Z,62.80
2022-12-03T18:28:13.846Z,61.50
2022-12-03T18:30:40.403Z,61.50
2022-12-03T18:33:07.037Z,61.50
2022-12-03T18:35:33.773Z,61.50
2022-12-03T18:38:00.291Z,61.50
2022-12-03T18:40:27.232Z,61.50
2022-12-03T18:42:53.900Z,61.50
2022-12-03T18:45:20.533Z,61.50
2022-12-03T18:47:47.299Z,61.50
2022-12-03T18:50:14.631Z,61.50
2022-12-03T18:52:41.458Z,61.50
2022-12-03T18:55:08.582Z,61.50
2022-12-03T18:57:35.281Z,61.50
2022-12-03T19:00:01.897Z,61.50
2022-12-03T19:05:15.095Z,61.50
2022-12-03T19:07:43.312Z,61.60
2022-12-03T19:10:10.363Z,61.50
2022-12-03T19:12:38.641Z,61.50
2022-12-03T19:15:06.042Z,61.50
2022-12-03T19:17:33.304Z,61.50
2022-12-03T19:19:59.869Z,61.60
2022-12-03T19:22:26.439Z,61.50
2022-12-03T19:24:53.078Z,61.60
2022-12-03T19:27:19.708Z,61.50
2022-12-03T19:29:49.771Z,62.80
2022-12-03T19:32:16.376Z,61.70
2022-12-03T19:34:43.016Z,61.60
2022-12-03T19:37:09.726Z,61.60
2022-12-03T19:39:36.462Z,61.60
2022-12-03T19:42:03.091Z,61.70
2022-12-03T19:44:29.823Z,61.50
2022-12-03T19:46:57.146Z,61.50
2022-12-03T19:49:24.565Z,61.50
2022-12-03T19:51:51.150Z,61.50
2022-12-03T19:54:17.839Z,61.50
2022-12-03T19:56:44.494Z,61.60
2022-12-03T19:59:14.267Z,61.50
2022-12-03T20:01:42.920Z,61.60
2022-12-03T20:04:12.242Z,61.50
2022-12-03T20:06:39.668Z,61.50
2022-12-03T20:09:10.754Z,62.80
2022-12-03T20:11:38.258Z,61.50
2022-12-03T20:14:08.147Z,61.50
2022-12-03T20:16:35.749Z,61.50
2022-12-03T20:19:05.213Z,61.50
2022-12-03T20:21:33.264Z,61.50
2022-12-03T20:24:00.125Z,61.50
2022-12-03T20:26:27.474Z,61.40
2022-12-03T20:28:55.048Z,61.50
2022-12-03T20:31:24.283Z,61.50
2022-12-03T20:33:52.765Z,61.50
2022-12-03T20:36:22.507Z,61.50
2022-12-03T20:38:53.258Z,61.40
2022-12-03T20:41:19.895Z,61.40
2022-12-03T20:43:47.393Z,61.50
2022-12-03T20:46:18.439Z,61.50
2022-12-03T20:48:45.102Z,61.40
2022-12-03T20:51:15.543Z,61.50
2022-12-03T20:53:42.348Z,61.50
2022-12-03T20:56:09.669Z,61.50
2022-12-03T20:58:36.517Z,61.60
2022-12-03T21:01:33.000Z,61.50
2022-12-03T21:04:00.084Z,61.40
2022-12-03T21:06:29.731Z,61.40
2022-12-03T21:08:58.479Z,61.50
2022-12-03T21:11:29.602Z,61.50
2022-12-03T21:13:56.723Z,61.40
2022-12-03T21:16:52.158Z,61.40
2022-12-03T21:19:12.695Z,61.50
2022-12-03T21:21:39.296Z,61.40
2022-12-03T21:24:06.145Z,61.40
2022-12-03T21:26:32.738Z,61.40
2022-12-03T21:28:59.311Z,61.50
2022-12-03T21:31:27.000Z,61.50
2022-12-03T21:33:54.760Z,61.40
2022-12-03T21:36:21.427Z,61.50
2022-12-03T21:38:48.211Z,61.50
2022-12-03T21:41:15.546Z,61.50
2022-12-03T21:43:42.293Z,61.40
2022-12-03T21:47:10.610Z,61.40
2022-12-03T21:48:56.126Z,61.40
2022-12-03T21:51:22.806Z,61.50
2022-12-03T21:53:49.475Z,61.50
2022-12-03T21:56:18.755Z,61.60
2022-12-03T21:58:46.037Z,61.50
2022-12-03T22:01:14.299Z,61.50
2022-12-03T22:03:41.042Z,61.50
2022-12-03T22:06:08.536Z,61.50
2022-12-03T22:08:35.231Z,61.50
2022-12-03T22:11:13.427Z,61.50
2022-12-03T22:13:41.086Z,62.10
2022-12-03T22:16:11.262Z,61.50
2022-12-03T22:18:38.761Z,61.50
2022-12-03T22:21:06.941Z,61.50
2022-12-03T22:23:33.739Z,61.50
2022-12-03T22:26:02.968Z,61.60
2022-12-03T22:28:29.874Z,61.50
2022-12-03T22:30:57.124Z,61.50
2022-12-03T22:33:24.254Z,61.50
2022-12-03T22:35:58.781Z,61.60
2022-12-03T22:38:25.984Z,61.60
2022-12-03T22:40:53.015Z,61.50
2022-12-03T22:43:20.187Z,61.50
2022-12-03T22:45:47.095Z,61.50
2022-12-03T22:48:14.115Z,61.50
2022-12-03T22:50:43.011Z,61.50
2022-12-03T22:53:09.642Z,61.50
2022-12-03T22:55:36.240Z,61.60
2022-12-03T22:58:03.026Z,61.50
2022-12-03T23:00:32.741Z,61.50
2022-12-03T23:02:59.412Z,61.50
2022-12-03T23:05:26.176Z,61.70
2022-12-03T23:07:52.820Z,61.50
2022-12-03T23:10:19.439Z,61.70
2022-12-03T23:12:46.024Z,61.70
2022-12-03T23:15:12.705Z,61.70
2022-12-03T23:17:39.310Z,61.60
2022-12-03T23:20:06.927Z,61.60
2022-12-03T23:22:33.534Z,61.70
2022-12-03T23:25:00.096Z,61.60
2022-12-03T23:27:27.692Z,61.70
2022-12-03T23:29:54.586Z,61.70
2022-12-03T23:32:21.421Z,61.70
2022-12-03T23:34:48.330Z,61.70
2022-12-03T23:37:15.077Z,61.60
2022-12-03T23:39:41.683Z,61.60
2022-12-03T23:42:08.261Z,61.60
2022-12-03T23:44:34.818Z,61.60
2022-12-03T23:47:02.169Z,61.70
2022-12-03T23:49:29.941Z,61.60
2022-12-03T23:51:56.561Z,61.60
2022-12-03T23:54:23.226Z,61.60
2022-12-03T23:56:49.875Z,62.40
2022-12-03T23:59:16.466Z,61.80
